createdAt,value
2018-10-06T00:02:05.996Z,17.20
2018-10-06T00:07:09.241Z,16.80
2018-10-06T00:12:12.473Z,16.90
2018-10-06T00:17:15.724Z,16.80
2018-10-06T00:22:18.981Z,16.90
2018-10-06T00:27:22.331Z,17.20
2018-10-06T00:32:26.148Z,17.10
2018-10-06T00:37:29.352Z,17.00
2018-10-06T00:42:32.628Z,16.80
2018-10-06T00:47:35.872Z,16.90
2018-10-06T00:52:39.112Z,16.90
2018-10-06T00:57:42.348Z,17.00
2018-10-06T01:02:45.588Z,16.60
2018-10-06T01:07:48.819Z,16.90
2018-10-06T01:12:52.075Z,17.00
2018-10-06T01:17:55.324Z,17.00
2018-10-06T01:22:58.520Z,16.90
2018-10-06T01:28:02.140Z,17.00
2018-10-06T01:33:05.347Z,16.90
2018-10-06T01:38:08.567Z,16.70
2018-10-06T01:43:11.820Z,16.80
2018-10-06T01:48:15.043Z,17.00
2018-10-06T01:53:18.247Z,17.20
2018-10-06T01:58:21.467Z,17.00
2018-10-06T02:03:24.686Z,16.90
2018-10-06T02:08:27.892Z,16.70
2018-10-06T02:13:31.101Z,17.00
2018-10-06T02:18:34.325Z,16.70
2018-10-06T02:23:37.580Z,16.80
2018-10-06T02:28:40.831Z,16.80
2018-10-06T02:33:44.059Z,16.90
2018-10-06T02:38:47.246Z,16.80
2018-10-06T02:43:50.503Z,16.90
2018-10-06T02:48:53.703Z,16.90
2018-10-06T02:53:56.945Z,16.80
2018-10-06T02:59:00.180Z,16.80
2018-10-06T03:04:03.395Z,17.00
2018-10-06T03:09:07.993Z,16.90
2018-10-06T03:14:11.205Z,16.70
2018-10-06T03:19:14.411Z,16.60
2018-10-06T03:24:17.630Z,16.60
2018-10-06T03:29:20.863Z,16.80
2018-10-06T03:34:24.060Z,16.70
2018-10-06T03:39:27.263Z,16.70
2018-10-06T03:44:30.491Z,16.70
2018-10-06T03:49:33.771Z,16.40
2018-10-06T03:54:36.963Z,16.70
2018-10-06T03:59:40.179Z,16.80
2018-10-06T04:04:43.399Z,16.70
2018-10-06T04:09:46.611Z,16.70
2018-10-06T04:14:49.818Z,16.70
2018-10-06T04:19:53.044Z,16.30
2018-10-06T04:24:56.254Z,16.60
2018-10-06T04:29:59.449Z,16.70
2018-10-06T04:35:02.680Z,16.50
2018-10-06T04:40:05.910Z,16.30
2018-10-06T04:45:09.164Z,16.30
2018-10-06T04:50:12.393Z,16.40
2018-10-06T04:55:15.620Z,16.20
2018-10-06T05:00:18.829Z,16.30
2018-10-06T05:05:22.044Z,16.50
2018-10-06T05:10:25.268Z,16.50
2018-10-06T05:15:28.483Z,16.30
2018-10-06T05:20:31.693Z,16.20
2018-10-06T05:25:35.001Z,16.10
2018-10-06T05:30:38.211Z,16.30
2018-10-06T05:35:41.416Z,16.20
2018-10-06T05:40:44.632Z,16.30
2018-10-06T05:45:47.842Z,16.10
2018-10-06T05:50:51.065Z,16.30
2018-10-06T05:55:54.273Z,16.10
2018-10-06T06:00:57.484Z,16.30
2018-10-06T06:06:00.730Z,16.30
2018-10-06T06:11:03.949Z,16.20
2018-10-06T06:16:07.200Z,16.30
2018-10-06T06:21:10.413Z,16.10
2018-10-06T06:26:13.641Z,16.10
2018-10-06T06:31:16.892Z,16.50
2018-10-06T06:36:20.080Z,16.30
2018-10-06T06:41:23.295Z,15.90
2018-10-06T06:46:26.524Z,16.10
2018-10-06T06:51:29.735Z,16.00
2018-10-06T06:56:32.923Z,16.10
2018-10-06T07:01:36.139Z,16.20
2018-10-06T07:06:39.359Z,16.20
2018-10-06T07:11:42.591Z,16.30
2018-10-06T07:16:46.544Z,16.50
2018-10-06T07:21:49.955Z,16.20
2018-10-06T07:26:53.176Z,16.20
2018-10-06T07:31:56.406Z,16.20
2018-10-06T07:36:59.632Z,16.20
2018-10-06T07:42:02.844Z,16.50
2018-10-06T07:47:06.074Z,16.20
2018-10-06T07:52:09.390Z,16.10
2018-10-06T07:57:12.597Z,16.30
2018-10-06T08:02:15.992Z,16.30
2018-10-06T08:07:19.217Z,16.60
2018-10-06T08:12:22.593Z,16.20
2018-10-06T08:17:26.012Z,16.30
2018-10-06T08:22:29.286Z,16.60
2018-10-06T08:27:32.709Z,16.70
2018-10-06T08:32:35.960Z,16.70
2018-10-06T08:37:39.204Z,16.30
2018-10-06T08:42:42.563Z,16.70
2018-10-06T08:47:45.764Z,16.60
2018-10-06T08:52:48.970Z,16.60
2018-10-06T08:57:52.191Z,16.80
2018-10-06T09:02:55.395Z,16.70
2018-10-06T09:07:58.591Z,16.80
2018-10-06T09:13:01.794Z,17.00
2018-10-06T09:18:05.015Z,16.80
2018-10-06T09:23:08.264Z,16.80
2018-10-06T09:28:11.546Z,16.90
2018-10-06T09:33:14.700Z,16.90
2018-10-06T09:38:17.935Z,16.90
2018-10-06T09:43:21.198Z,17.40
2018-10-06T09:48:24.453Z,17.30
2018-10-06T09:53:27.655Z,17.40
2018-10-06T09:58:30.882Z,17.40
2018-10-06T10:03:39.503Z,17.40
2018-10-06T10:08:42.731Z,17.60
2018-10-06T10:13:46.023Z,17.90
2018-10-06T10:18:49.263Z,18.40
2018-10-06T10:23:52.498Z,18.20
2018-10-06T10:28:55.773Z,18.20
2018-10-06T10:33:58.899Z,18.30
2018-10-06T10:39:02.159Z,19.40
2018-10-06T10:44:05.577Z,19.80
2018-10-06T10:49:08.616Z,20.70
2018-10-06T10:54:11.860Z,20.30
2018-10-06T10:59:15.115Z,20.80
2018-10-06T11:04:18.311Z,21.00
2018-10-06T11:09:21.520Z,21.20
2018-10-06T11:14:24.743Z,21.20
2018-10-06T11:19:27.935Z,21.50
2018-10-06T11:24:31.163Z,21.70
2018-10-06T11:29:34.379Z,21.70
2018-10-06T11:34:37.606Z,21.90
2018-10-06T11:39:40.818Z,21.90
2018-10-06T11:44:44.037Z,22.00
2018-10-06T11:49:47.353Z,22.20
2018-10-06T11:54:50.528Z,22.50
2018-10-06T11:59:53.784Z,22.40
2018-10-06T12:41:40.647Z,21.50
2018-10-06T12:46:43.869Z,23.20
2018-10-06T12:51:47.093Z,23.40
2018-10-06T12:56:50.295Z,23.60
2018-10-06T13:01:53.490Z,23.60
2018-10-06T13:06:56.747Z,23.10
2018-10-06T13:12:00.158Z,23.00
2018-10-06T13:17:03.168Z,22.90
2018-10-06T13:22:06.351Z,23.00
2018-10-06T13:27:09.560Z,22.90
2018-10-06T13:32:12.768Z,23.10
2018-10-06T13:37:16.009Z,23.00
2018-10-06T13:42:19.223Z,23.00
2018-10-06T13:47:22.535Z,23.00
2018-10-06T13:52:25.763Z,23.00
2018-10-06T13:57:29.007Z,22.90
2018-10-06T14:02:32.237Z,22.90
2018-10-06T14:07:35.683Z,22.80
2018-10-06T14:12:41.297Z,22.80
2018-10-06T14:17:44.663Z,22.70
2018-10-06T14:22:47.891Z,22.80
2018-10-06T14:27:51.108Z,22.90
2018-10-06T14:32:54.351Z,22.80
2018-10-06T14:37:57.553Z,22.70
2018-10-06T14:43:00.747Z,22.70
2018-10-06T14:48:03.959Z,22.70
2018-10-06T14:53:07.258Z,22.50
2018-10-06T14:58:10.726Z,22.40
2018-10-06T15:12:49.008Z,22.20
2018-10-06T15:17:52.228Z,22.00
2018-10-06T15:22:55.716Z,22.30
2018-10-06T15:28:03.820Z,22.30
2018-10-06T15:33:07.120Z,22.40
2018-10-06T15:38:10.316Z,22.40
2018-10-06T15:43:13.553Z,22.50
2018-10-06T15:48:16.775Z,22.50
2018-10-06T15:53:20.000Z,22.40
2018-10-06T15:58:23.185Z,22.40
2018-10-06T16:03:26.466Z,22.40
2018-10-06T16:08:29.800Z,22.40
2018-10-06T16:13:33.000Z,22.30
2018-10-06T16:18:36.219Z,22.20
2018-10-06T16:23:39.435Z,22.00
2018-10-06T16:28:43.127Z,21.70
2018-10-06T16:33:46.336Z,22.10
2018-10-06T16:38:49.548Z,21.60
2018-10-06T16:43:52.918Z,21.90
2018-10-06T16:48:56.191Z,21.90
2018-10-06T16:53:59.432Z,21.50
2018-10-06T16:59:02.684Z,22.10
2018-10-06T17:04:05.948Z,21.80
2018-10-06T17:09:10.435Z,21.80
2018-10-06T17:14:13.639Z,21.60
2018-10-06T17:19:16.866Z,21.60
2018-10-06T17:24:20.125Z,21.70
2018-10-06T17:29:23.322Z,21.50
2018-10-06T17:34:26.597Z,21.50
2018-10-06T17:39:29.826Z,21.50
2018-10-06T17:44:33.072Z,21.60
2018-10-06T17:49:36.394Z,21.40
2018-10-06T17:54:39.567Z,21.30
2018-10-06T17:59:42.807Z,21.30
2018-10-06T18:04:46.430Z,21.40
2018-10-06T18:09:49.672Z,21.30
2018-10-06T18:14:53.060Z,21.30
2018-10-06T18:19:56.455Z,21.20
2018-10-06T18:24:59.795Z,21.30
2018-10-06T18:30:03.253Z,21.20
2018-10-06T18:35:06.628Z,21.20
2018-10-06T18:40:09.983Z,21.10
2018-10-06T18:45:13.412Z,20.90
2018-10-06T18:50:16.859Z,21.30
2018-10-06T18:55:20.198Z,21.00
2018-10-06T19:00:23.588Z,21.20
2018-10-06T19:05:26.987Z,21.10
2018-10-06T19:10:30.374Z,21.00
2018-10-06T19:15:33.607Z,21.00
2018-10-06T19:20:36.958Z,20.70
2018-10-06T19:25:40.282Z,21.10
2018-10-06T19:30:43.688Z,20.90
2018-10-06T19:35:46.975Z,20.90
2018-10-06T19:40:51.504Z,20.90
2018-10-06T19:45:54.735Z,20.90
2018-10-06T19:50:58.044Z,20.70
2018-10-06T19:56:01.255Z,20.90
2018-10-06T20:01:04.593Z,20.70
2018-10-06T20:06:07.812Z,20.80
2018-10-06T20:11:11.038Z,20.80
2018-10-06T20:16:14.271Z,20.70
2018-10-06T20:21:19.271Z,20.70
2018-10-06T20:26:22.577Z,20.70
2018-10-06T20:31:25.788Z,20.70
2018-10-06T20:36:29.052Z,20.60
2018-10-06T20:41:32.297Z,20.60
2018-10-06T20:46:35.537Z,20.80
2018-10-06T20:51:38.824Z,20.40
2018-10-06T20:56:42.167Z,20.60
2018-10-06T21:01:45.399Z,20.40
2018-10-06T21:06:48.627Z,20.40
2018-10-06T21:11:51.849Z,20.40
2018-10-06T21:16:55.139Z,20.50
2018-10-06T21:21:58.466Z,20.30
2018-10-06T21:27:01.748Z,20.30
2018-10-06T21:32:04.951Z,20.30
2018-10-06T21:37:08.243Z,20.40
2018-10-06T21:42:11.436Z,20.20
2018-10-06T21:47:14.697Z,20.40
2018-10-06T21:52:17.948Z,20.30
2018-10-06T21:57:21.277Z,20.30
2018-10-06T22:02:24.511Z,20.10
2018-10-06T22:07:27.780Z,20.30
2018-10-06T22:12:31.011Z,20.20
2018-10-06T22:17:34.267Z,20.10
2018-10-06T22:22:37.511Z,20.20
2018-10-06T22:27:40.858Z,20.20
2018-10-06T22:32:44.103Z,20.20
2018-10-06T22:37:47.380Z,20.10
2018-10-06T22:42:50.652Z,20.10
2018-10-06T22:47:53.881Z,20.10
2018-10-06T22:52:57.120Z,19.90
2018-10-06T22:58:00.332Z,20.00
2018-10-06T23:03:03.621Z,20.00
2018-10-06T23:08:06.844Z,20.00
2018-10-06T23:13:10.067Z,20.00
2018-10-06T23:18:13.291Z,19.90
2018-10-06T23:23:16.555Z,20.00
2018-10-06T23:28:19.771Z,19.90
2018-10-06T23:33:22.980Z,20.00
2018-10-06T23:38:26.299Z,19.90
2018-10-06T23:43:29.557Z,19.80
2018-10-06T23:48:32.808Z,20.00
2018-10-06T23:53:36.227Z,20.10
2018-10-06T23:58:39.432Z,19.70
